Time;durP1;ratioP1;P1;durP2;ratioP2;P2;SDS_P1;SDS_P2;PMS_P1;PMS_P2;Temp;Humidity;BMP_temperature;BMP_pressure;BME280_temperature;BME280_humidity;BME280_pressure;Samples;Min_cycle;Max_cycle;Signal;HPM_P1;HPM_P2
2023/02/23 00:08:00;;;;;;;89.10;33.67;;;-0.10;99.90;;;;;;20986270;28;20412;-61
2023/02/23 00:18:03;;;;;;;109.47;37.88;;;0.10;99.90;;;;;;21001742;28;20040;-59
2023/02/23 00:28:06;;;;;;;118.80;38.20;;;0.00;99.90;;;;;;20992987;28;20486;-66
2023/02/23 00:38:08;;;;;;;133.55;42.50;;;-0.30;99.90;;;;;;20981409;28;20086;-60
2023/02/23 00:48:09;;;;;;;155.68;46.13;;;-0.30;99.90;;;;;;20998299;28;20063;-66
2023/02/23 00:58:12;;;;;;;140.00;44.90;;;-0.30;99.90;;;;;;20996135;28;20112;-66
2023/02/23 01:08:17;;;;;;;141.50;44.53;;;-0.20;99.90;;;;;;20989794;28;20070;-66
2023/02/23 01:18:20;;;;;;;135.20;43.53;;;-0.10;99.90;;;;;;20996013;28;20044;-60
2023/02/23 01:28:22;;;;;;;139.07;44.63;;;0.20;99.90;;;;;;20988725;28;20037;-67
2023/02/23 01:38:23;;;;;;;119.72;42.17;;;0.40;99.90;;;;;;20980010;28;20033;-60
2023/02/23 01:48:37;;;;;;;127.68;42.47;;;0.40;99.90;;;;;;20993325;28;20067;-60
2023/02/23 01:58:44;;;;;;;132.13;43.47;;;0.30;99.90;;;;;;20950189;28;20041;-66
2023/02/23 02:08:53;;;;;;;129.13;42.95;;;0.30;99.90;;;;;;20963592;28;20041;-60
2023/02/23 02:19:22;;;;;;;131.73;43.08;;;0.20;99.90;;;;;;20989673;28;20032;-59
2023/02/23 02:29:49;;;;;;;120.65;40.00;;;0.60;99.90;;;;;;20972489;28;20560;-60
2023/02/23 02:40:17;;;;;;;145.20;45.30;;;0.90;99.90;;;;;;20973416;28;20025;-66
2023/02/23 02:50:58;;;;;;;112.00;39.50;;;1.30;99.90;;;;;;20990159;28;20174;-57
2023/02/23 04:24:36;;;;;;;85.78;35.60;;;1.90;99.90;;;;;;20978486;28;20028;-57
2023/02/23 04:34:39;;;;;;;84.57;32.97;;;2.00;99.90;;;;;;20984816;28;20036;-66
2023/02/23 04:44:40;;;;;;;87.93;33.60;;;2.10;99.90;;;;;;20968072;28;20032;-57
2023/02/23 04:54:42;;;;;;;99.20;37.38;;;2.00;99.90;;;;;;20982376;28;20047;-56
2023/02/23 05:04:44;;;;;;;89.50;34.60;;;2.10;99.90;;;;;;20998205;28;20033;-57
2023/02/23 05:14:45;;;;;;;85.97;34.67;;;2.20;99.90;;;;;;20995650;28;20041;-57
2023/02/23 05:24:47;;;;;;;126.15;45.35;;;2.20;99.90;;;;;;20987576;28;20036;-57
2023/02/23 05:34:50;;;;;;;131.65;44.38;;;2.30;99.90;;;;;;20981290;28;20063;-57
2023/02/23 05:44:52;;;;;;;123.15;47.58;;;2.40;99.90;;;;;;20978990;28;20040;-58
2023/02/23 05:54:53;;;;;;;129.52;48.75;;;2.40;99.90;;;;;;20993249;28;20373;-57
2023/02/23 06:04:56;;;;;;;129.93;45.53;;;2.40;99.90;;;;;;20992634;28;20033;-57
2023/02/23 06:14:58;;;;;;;123.88;44.95;;;2.30;99.90;;;;;;20954122;28;20550;-57
2023/02/23 06:25:03;;;;;;;112.10;42.67;;;2.30;99.90;;;;;;20978691;28;20088;-64
2023/02/23 06:35:06;;;;;;;97.55;37.17;;;2.20;99.90;;;;;;20974881;28;20059;-57
2023/02/23 06:45:08;;;;;;;85.03;34.20;;;2.30;99.90;;;;;;20946006;28;20398;-57
2023/02/23 06:55:12;;;;;;;79.13;33.25;;;2.40;99.90;;;;;;20959006;28;20086;-64
2023/02/23 07:05:13;;;;;;;87.38;36.00;;;2.70;99.90;;;;;;20978337;28;20051;-57
2023/02/23 07:15:18;;;;;;;88.53;34.65;;;2.80;99.90;;;;;;20984230;28;20086;-57
2023/02/23 07:25:20;;;;;;;80.65;34.10;;;3.00;99.90;;;;;;20966404;28;20032;-57
2023/02/23 07:35:22;;;;;;;72.47;32.17;;;3.30;99.90;;;;;;20957662;28;20206;-64
2023/02/23 07:45:23;;;;;;;89.70;37.55;;;3.60;99.90;;;;;;20971571;28;20085;-57
2023/02/23 07:55:25;;;;;;;74.32;34.55;;;4.00;99.90;;;;;;20973839;28;20036;-64
2023/02/23 08:05:27;;;;;;;73.32;32.22;;;4.40;99.90;;;;;;20984430;28;20036;-56
2023/02/23 08:15:30;;;;;;;74.25;34.90;;;4.70;99.90;;;;;;20976560;28;20049;-64
2023/02/23 08:25:32;;;;;;;71.20;34.05;;;5.10;99.90;;;;;;20970402;28;20039;-64
2023/02/23 08:35:33;;;;;;;72.03;34.78;;;5.50;99.90;;;;;;20985902;28;20775;-63
2023/02/23 08:45:37;;;;;;;70.25;34.10;;;5.90;99.90;;;;;;20997698;28;20037;-63
2023/02/23 08:55:39;;;;;;;70.70;33.70;;;6.30;99.90;;;;;;20990476;28;20040;-64
2023/02/23 09:05:40;;;;;;;69.38;32.08;;;6.60;99.90;;;;;;20985005;28;20036;-59
2023/02/23 09:15:42;;;;;;;65.53;32.75;;;6.70;99.90;;;;;;20994003;28;20091;-57
2023/02/23 09:25:44;;;;;;;72.07;34.40;;;6.80;99.90;;;;;;20989467;28;20031;-63
2023/02/23 09:35:46;;;;;;;74.18;35.33;;;7.00;99.90;;;;;;20993739;28;20093;-63
2023/02/23 09:46:30;;;;;;;70.05;34.13;;;7.50;99.90;;;;;;20981573;28;20385;-64
2023/02/23 09:56:36;;;;;;;70.97;35.50;;;7.90;99.90;;;;;;20988443;28;20029;-58
2023/02/23 10:06:41;;;;;;;69.22;35.00;;;7.60;99.90;;;;;;20989157;28;20032;-57
2023/02/23 10:16:59;;;;;;;66.35;33.03;;;7.60;99.90;;;;;;20992686;28;20056;-64
2023/02/23 10:27:19;;;;;;;67.00;35.03;;;8.00;99.90;;;;;;20973246;28;20555;-56
2023/02/23 10:37:23;;;;;;;70.70;35.57;;;8.70;99.90;;;;;;20984877;28;20040;-61
2023/02/23 10:47:36;;;;;;;67.80;33.08;;;9.00;99.90;;;;;;20990709;28;20032;-56
2023/02/23 10:57:38;;;;;;;81.63;38.63;;;8.60;99.90;;;;;;20987798;28;20040;-57
2023/02/23 11:07:40;;;;;;;87.35;41.60;;;7.90;99.90;;;;;;20967563;28;20102;-63
2023/02/23 11:17:42;;;;;;;86.45;42.05;;;7.50;99.90;;;;;;20988301;28;20106;-57
2023/02/23 11:27:50;;;;;;;83.90;40.78;;;7.40;99.90;;;;;;20977701;28;20020;-57
2023/02/23 11:37:52;;;;;;;74.03;35.78;;;7.70;99.90;;;;;;20970982;28;20556;-57
2023/02/23 11:47:57;;;;;;;68.22;36.60;;;7.90;99.90;;;;;;20986587;28;20058;-55
2023/02/23 11:58:21;;;;;;;71.80;35.40;;;8.30;99.90;;;;;;20979601;28;20097;-57
2023/02/23 12:08:46;;;;;;;82.95;39.75;;;8.10;99.90;;;;;;20993567;28;20082;-57
2023/02/23 12:19:12;;;;;;;91.63;42.42;;;7.50;99.90;;;;;;20999607;28;20041;-63
2023/02/23 12:29:30;;;;;;;82.38;38.30;;;7.00;99.90;;;;;;20984459;28;20114;-57
2023/02/23 12:39:47;;;;;;;77.47;38.72;;;6.80;99.90;;;;;;20994398;28;20032;-57
2023/02/23 12:50:06;;;;;;;71.50;36.25;;;7.00;99.90;;;;;;20999779;28;20036;-57
2023/02/23 13:00:35;;;;;;;62.67;32.00;;;7.40;99.90;;;;;;20996078;28;20024;-57
2023/02/23 13:10:54;;;;;;;58.50;29.03;;;7.70;99.90;;;;;;20977574;28;20044;-63
2023/02/23 13:21:24;;;;;;;88.75;40.00;;;7.80;99.90;;;;;;20985707;28;20037;-57
2023/02/23 13:31:35;;;;;;;87.22;40.67;;;7.20;99.90;;;;;;20988603;28;20028;-57
2023/02/23 13:42:00;;;;;;;85.95;41.45;;;6.60;99.90;;;;;;20975918;28;20377;-57
2023/02/23 13:52:27;;;;;;;78.95;38.65;;;6.60;99.90;;;;;;20987004;28;20040;-64
2023/02/23 14:02:29;;;;;;;98.72;44.55;;;7.00;99.90;;;;;;20989243;28;20044;-64
2023/02/23 14:12:34;;;;;;;94.50;45.40;;;6.80;99.90;;;;;;20987910;28;20041;-57
2023/02/23 14:22:36;;;;;;;88.05;41.33;;;6.30;99.90;;;;;;20977086;28;20032;-59
2023/02/23 14:32:44;;;;;;;93.18;42.85;;;5.90;99.90;;;;;;20981525;28;20055;-64
2023/02/23 14:42:50;;;;;;;96.05;42.17;;;5.80;99.90;;;;;;20982758;28;20033;-57
2023/02/23 14:52:55;;;;;;;80.25;37.30;;;5.90;99.90;;;;;;20985126;28;20040;-64
2023/02/23 15:02:58;;;;;;;91.38;41.30;;;5.90;99.90;;;;;;20972039;28;20036;-56
2023/02/23 15:13:06;;;;;;;83.03;38.13;;;6.00;99.90;;;;;;20986461;28;20117;-63
2023/02/23 15:23:11;;;;;;;85.18;39.40;;;6.10;99.90;;;;;;20978253;28;20105;-57
2023/02/23 15:33:22;;;;;;;79.82;37.33;;;6.00;99.90;;;;;;20987383;28;20279;-63
2023/02/23 15:43:24;;;;;;;74.83;36.93;;;6.00;99.90;;;;;;20973836;28;20041;-64
2023/02/23 15:53:31;;;;;;;75.03;35.47;;;5.90;99.90;;;;;;20985154;28;20478;-57
2023/02/23 16:03:36;;;;;;;74.95;36.30;;;5.80;99.90;;;;;;20966339;28;20040;-57
2023/02/23 16:13:42;;;;;;;77.70;36.20;;;5.60;99.90;;;;;;20962334;28;20071;-57
2023/02/23 16:23:51;;;;;;;78.47;36.45;;;5.40;99.90;;;;;;20965197;28;20478;-57
2023/02/23 16:33:55;;;;;;;87.50;37.40;;;5.20;99.90;;;;;;20977478;28;20032;-58
2023/02/23 16:44:00;;;;;;;91.63;39.00;;;4.80;99.90;;;;;;20943542;28;20033;-58
2023/02/23 16:54:02;;;;;;;92.00;38.90;;;4.50;99.90;;;;;;20970192;28;20029;-58
2023/02/23 17:04:14;;;;;;;72.70;31.35;;;4.30;99.90;;;;;;20981935;28;20033;-56
2023/02/23 17:14:30;;;;;;;79.88;34.72;;;4.00;99.90;;;;;;20994775;28;20044;-64
2023/02/23 17:24:32;;;;;;;65.32;25.95;;;3.70;99.90;;;;;;20993113;28;20040;-64
2023/02/23 17:34:34;;;;;;;59.28;24.80;;;3.00;99.90;;;;;;20991728;28;20078;-63
2023/02/23 17:44:36;;;;;;;66.53;26.45;;;2.40;99.90;;;;;;20959683;28;20032;-60
2023/02/23 17:54:37;;;;;;;68.68;27.92;;;2.00;99.90;;;;;;20992750;28;20033;-60
2023/02/23 18:04:40;;;;;;;68.65;26.33;;;1.90;99.90;;;;;;20982444;28;20037;-60
2023/02/23 18:14:42;;;;;;;66.25;26.45;;;1.70;99.90;;;;;;20993237;28;20045;-67
2023/02/23 18:24:44;;;;;;;77.15;30.98;;;1.50;99.90;;;;;;20979089;28;20036;-59
2023/02/23 18:34:45;;;;;;;69.45;25.83;;;1.50;99.90;;;;;;20978182;28;20028;-66
2023/02/23 18:44:47;;;;;;;68.93;27.48;;;1.40;99.90;;;;;;20969981;28;20032;-67
2023/02/23 18:54:49;;;;;;;74.63;29.00;;;1.50;99.90;;;;;;20981534;28;20470;-65
2023/02/23 19:04:51;;;;;;;75.97;30.77;;;1.60;99.90;;;;;;20989160;28;20037;-65
2023/02/23 19:14:53;;;;;;;74.40;28.10;;;2.00;99.90;;;;;;20981813;28;20551;-57
2023/02/23 19:24:55;;;;;;;67.28;27.23;;;2.40;99.90;;;;;;20981123;28;20066;-64
2023/02/23 19:34:56;;;;;;;68.45;27.15;;;2.60;99.90;;;;;;20986550;28;20029;-58
2023/02/23 19:44:58;;;;;;;69.22;27.70;;;2.50;99.90;;;;;;20968886;28;20033;-64
2023/02/23 19:55:00;;;;;;;61.63;26.23;;;2.40;99.90;;;;;;20981514;28;20507;-57
2023/02/23 20:05:02;;;;;;;71.60;29.67;;;2.20;99.90;;;;;;20984689;28;20055;-57
2023/02/23 20:15:04;;;;;;;79.88;31.23;;;2.00;99.90;;;;;;20983289;28;20493;-57
2023/02/23 20:25:07;;;;;;;73.22;29.60;;;1.90;99.90;;;;;;20980300;28;20024;-59
2023/02/23 20:35:12;;;;;;;84.50;31.30;;;1.60;99.90;;;;;;20984130;28;20035;-59
2023/02/23 20:45:19;;;;;;;87.47;32.45;;;1.30;99.90;;;;;;20995944;28;20036;-61
2023/02/23 20:55:26;;;;;;;88.68;31.88;;;1.10;99.90;;;;;;20997791;28;20489;-66
2023/02/23 21:05:31;;;;;;;89.55;32.33;;;1.20;99.90;;;;;;20998359;28;20462;-57
2023/02/23 21:15:33;;;;;;;88.53;32.65;;;1.60;99.90;;;;;;20984166;28;20079;-64
2023/02/23 21:25:37;;;;;;;74.80;29.30;;;1.90;99.90;;;;;;20986836;28;20466;-64
2023/02/23 21:35:39;;;;;;;80.45;30.95;;;2.20;99.90;;;;;;20994863;28;20036;-56
2023/02/23 21:45:45;;;;;;;70.22;27.70;;;2.40;99.90;;;;;;20978722;28;20086;-57
2023/02/23 21:55:46;;;;;;;87.07;34.28;;;2.50;99.90;;;;;;20987078;28;20481;-57
2023/02/23 22:05:48;;;;;;;89.63;35.58;;;2.70;99.90;;;;;;20991582;28;20040;-57
2023/02/23 22:15:57;;;;;;;95.65;36.30;;;3.00;99.90;;;;;;20992233;28;20070;-57
2023/02/23 22:26:02;;;;;;;63.03;28.98;;;3.10;99.90;;;;;;20988803;28;20082;-58
2023/02/23 22:36:05;;;;;;;68.78;30.48;;;3.10;99.90;;;;;;20978849;28;20032;-55
2023/02/23 22:46:08;;;;;;;70.28;27.95;;;3.20;99.90;;;;;;20987422;28;20040;-57
2023/02/23 22:56:10;;;;;;;89.78;33.53;;;3.20;99.90;;;;;;20968813;28;20037;-57
2023/02/23 23:06:20;;;;;;;61.30;28.15;;;3.30;99.90;;;;;;20988071;28;20098;-64
2023/02/23 23:16:24;;;;;;;59.40;25.93;;;3.30;99.90;;;;;;20988759;28;20036;-64
2023/02/23 23:26:27;;;;;;;63.55;28.08;;;3.20;99.90;;;;;;20972747;28;20036;-64
2023/02/23 23:36:32;;;;;;;61.63;27.30;;;2.90;99.90;;;;;;20979316;28;20024;-64
2023/02/23 23:46:37;;;;;;;82.18;31.10;;;2.60;99.90;;;;;;20975388;28;20029;-67
2023/02/23 23:56:38;;;;;;;78.10;29.60;;;2.50;99.90;;;;;;20977956;28;20405;-60
